createdAt,value
2022-12-03T00:01:18.505Z,101211.87
2022-12-03T00:03:47.568Z,101208.59
2022-12-03T00:06:16.403Z,101205.94
2022-12-03T00:08:44.891Z,101203.45
2022-12-03T00:11:14.510Z,101203.77
2022-12-03T00:13:42.480Z,101206.15
2022-12-03T00:16:10.383Z,101205.90
2022-12-03T00:18:37.876Z,101201.14
2022-12-03T00:21:05.396Z,101201.78
2022-12-03T00:23:35.941Z,101202.52
2022-12-03T00:26:09.278Z,101204.47
2022-12-03T00:28:37.542Z,101203.04
2022-12-03T00:31:06.621Z,101201.61
2022-12-03T00:33:34.359Z,101204.84
2022-12-03T00:36:04.754Z,101203.30
2022-12-03T00:38:32.236Z,101202.73
2022-12-03T00:41:06.075Z,101199.55
2022-12-03T00:43:33.454Z,101195.48
2022-12-03T00:46:02.784Z,101191.52
2022-12-03T00:48:29.930Z,101193.00
2022-12-03T00:50:57.409Z,101190.09
2022-12-03T00:53:25.454Z,101185.81
2022-12-03T00:55:52.560Z,101184.64
2022-12-03T00:58:22.802Z,101190.90
2022-12-03T01:00:50.919Z,101185.49
2022-12-03T01:03:19.637Z,101186.50
2022-12-03T01:05:48.175Z,101187.14
2022-12-03T01:08:21.132Z,101183.54
2022-12-03T01:10:48.396Z,101181.95
2022-12-03T01:13:16.113Z,101180.25
2022-12-03T01:15:43.800Z,101181.55
2022-12-03T01:18:12.656Z,101173.91
2022-12-03T01:20:43.861Z,101167.94
2022-12-03T01:23:13.766Z,101166.73
2022-12-03T01:25:44.141Z,101163.52
2022-12-03T01:28:14.333Z,101162.84
2022-12-03T01:31:04.639Z,101163.15
2022-12-03T01:33:33.669Z,101159.80
2022-12-03T01:36:00.804Z,101162.77
2022-12-03T01:38:28.257Z,101159.87
2022-12-03T01:40:55.981Z,101160.52
2022-12-03T01:43:23.120Z,101161.94
2022-12-03T01:45:50.694Z,101165.64
2022-12-03T01:48:21.437Z,101158.08
2022-12-03T01:50:48.595Z,101155.05
2022-12-03T01:53:20.060Z,101160.66
2022-12-03T01:55:49.030Z,101156.63
2022-12-03T01:58:17.836Z,101153.14
2022-12-03T02:00:46.169Z,101154.36
2022-12-03T02:03:24.275Z,101153.04
2022-12-03T02:05:53.053Z,101150.19
2022-12-03T02:08:48.901Z,101145.44
2022-12-03T02:11:35.251Z,101141.58
2022-12-03T02:14:05.698Z,101139.10
2022-12-03T02:16:35.024Z,101135.36
2022-12-03T02:19:03.664Z,101133.56
2022-12-03T02:21:40.096Z,101132.08
2022-12-03T02:24:21.516Z,101130.33
2022-12-03T02:26:50.034Z,101131.53
2022-12-03T02:29:17.499Z,101130.20
2022-12-03T02:31:45.787Z,101138.89
2022-12-03T02:34:37.113Z,101137.86
2022-12-03T02:37:11.195Z,101134.11
2022-12-03T02:39:48.528Z,101130.32
2022-12-03T02:42:35.925Z,101129.01
2022-12-03T02:45:25.928Z,101121.45
2022-12-03T02:48:12.204Z,101113.41
2022-12-03T02:50:48.935Z,101111.31
2022-12-03T02:53:21.939Z,101108.55
2022-12-03T02:55:51.068Z,101107.17
2022-12-03T02:58:22.490Z,101104.95
2022-12-03T03:00:52.078Z,101103.69
2022-12-03T03:03:22.482Z,101095.23
2022-12-03T03:05:51.050Z,101090.84
2022-12-03T03:08:19.439Z,101091.86
2022-12-03T03:10:52.639Z,101089.90
2022-12-03T03:13:50.658Z,101085.35
2022-12-03T03:16:18.040Z,101077.14
2022-12-03T03:18:45.316Z,101071.50
2022-12-03T03:21:13.862Z,101069.86
2022-12-03T03:23:44.048Z,101066.00
2022-12-03T03:26:14.367Z,101067.66
2022-12-03T03:28:50.597Z,101065.32
2022-12-03T03:31:22.970Z,101068.80
2022-12-03T03:33:51.333Z,101064.73
2022-12-03T03:36:21.379Z,101057.50
2022-12-03T03:38:50.029Z,101052.79
2022-12-03T03:41:18.969Z,101050.09
2022-12-03T03:43:48.107Z,101049.56
2022-12-03T03:46:17.177Z,101042.69
2022-12-03T03:48:44.568Z,101032.49
2022-12-03T03:51:17.222Z,101029.22
2022-12-03T03:53:50.043Z,101032.83
2022-12-03T03:56:20.030Z,101033.95
2022-12-03T03:58:48.485Z,101031.15
2022-12-03T04:01:19.410Z,101023.64
2022-12-03T04:03:47.230Z,101022.38
2022-12-03T04:06:14.275Z,101024.17
2022-12-03T04:08:41.384Z,101025.17
2022-12-03T04:11:27.691Z,101022.33
2022-12-03T04:13:55.972Z,101017.84
2022-12-03T04:16:23.447Z,101021.42
2022-12-03T04:18:56.132Z,101021.58
2022-12-03T04:21:43.223Z,101026.27
2022-12-03T04:24:12.415Z,101027.61
2022-12-03T04:26:58.654Z,101029.08
2022-12-03T04:29:26.079Z,101029.14
2022-12-03T04:32:11.779Z,101033.63
2022-12-03T04:35:00.113Z,101034.37
2022-12-03T04:37:28.181Z,101035.96
2022-12-03T04:39:56.767Z,101038.55
2022-12-03T04:42:25.441Z,101040.98
2022-12-03T04:44:52.981Z,101034.86
2022-12-03T04:47:22.062Z,101038.71
2022-12-03T04:49:51.847Z,101037.92
2022-12-03T04:52:22.272Z,101037.39
2022-12-03T04:54:52.637Z,101037.93
2022-12-03T04:57:22.240Z,101033.48
2022-12-03T04:59:49.753Z,101037.92
2022-12-03T05:02:16.946Z,101038.34
2022-12-03T05:04:44.765Z,101038.41
2022-12-03T05:07:12.023Z,101034.92
2022-12-03T05:09:41.707Z,101035.49
2022-12-03T05:12:09.292Z,101035.17
2022-12-03T05:14:36.553Z,101034.06
2022-12-03T05:17:04.783Z,101036.80
2022-12-03T05:19:50.633Z,101029.41
2022-12-03T05:22:18.286Z,101026.89
2022-12-03T05:24:48.395Z,101025.35
2022-12-03T05:27:23.419Z,101021.22
2022-12-03T05:29:56.663Z,101024.07
2022-12-03T05:32:25.331Z,101024.81
2022-12-03T05:34:56.256Z,101024.91
2022-12-03T05:37:23.932Z,101021.39
2022-12-03T05:39:53.380Z,101019.80
2022-12-03T05:42:39.700Z,101019.90
2022-12-03T05:45:11.891Z,101024.23
2022-12-03T05:47:39.498Z,101022.08
2022-12-03T05:50:12.023Z,101021.70
2022-12-03T05:52:39.159Z,101016.63
2022-12-03T05:55:11.926Z,101017.58
2022-12-03T05:57:39.810Z,101018.95
2022-12-03T06:00:13.241Z,101016.35
2022-12-03T06:02:44.623Z,101010.81
2022-12-03T06:05:13.866Z,101010.98
2022-12-03T06:07:44.372Z,101011.50
2022-12-03T06:10:13.907Z,101009.44
2022-12-03T06:12:43.118Z,101009.54
2022-12-03T06:15:11.159Z,101007.54
2022-12-03T06:17:39.328Z,101007.38
2022-12-03T06:20:09.244Z,101007.27
2022-12-03T06:22:36.539Z,101010.81
2022-12-03T06:25:08.100Z,101011.40
2022-12-03T06:27:36.942Z,101007.29
2022-12-03T06:30:07.458Z,101002.46
2022-12-03T06:32:36.671Z,101001.46
2022-12-03T06:35:03.776Z,101002.63
2022-12-03T06:37:31.819Z,101002.05
2022-12-03T06:40:04.037Z,101006.53
2022-12-03T06:42:30.929Z,101006.86
2022-12-03T06:44:58.063Z,101008.88
2022-12-03T06:47:29.481Z,101005.86
2022-12-03T06:49:58.200Z,101005.40
2022-12-03T06:52:25.163Z,101005.04
2022-12-03T06:54:53.064Z,101008.24
2022-12-03T06:57:20.303Z,101007.09
2022-12-03T06:59:50.741Z,101007.88
2022-12-03T07:02:18.800Z,101003.29
2022-12-03T07:04:47.482Z,101009.52
2022-12-03T07:07:15.467Z,101013.55
2022-12-03T07:09:43.161Z,101012.70
2022-12-03T07:12:10.328Z,101019.52
2022-12-03T07:14:44.383Z,101015.48
2022-12-03T07:17:11.929Z,101011.42
2022-12-03T07:19:39.977Z,101010.34
2022-12-03T07:22:11.412Z,101005.64
2022-12-03T07:24:39.012Z,101006.69
2022-12-03T07:27:09.587Z,101012.50
2022-12-03T07:29:37.063Z,101018.18
2022-12-03T07:32:06.725Z,101014.06
2022-12-03T07:34:34.084Z,101003.28
2022-12-03T07:37:02.673Z,100998.32
2022-12-03T07:39:33.408Z,100996.52
2022-12-03T07:42:02.438Z,100991.25
2022-12-03T07:44:32.639Z,100988.54
2022-12-03T07:47:00.224Z,100984.59
2022-12-03T07:49:27.224Z,100985.06
2022-12-03T07:51:54.792Z,100989.09
2022-12-03T07:54:28.077Z,100989.29
2022-12-03T07:57:01.398Z,100984.08
2022-12-03T07:59:31.119Z,100981.29
2022-12-03T08:01:58.818Z,100979.92
2022-12-03T08:04:26.091Z,100982.25
2022-12-03T08:06:56.270Z,100983.46
2022-12-03T08:09:24.141Z,100985.77
2022-12-03T08:11:51.208Z,100982.14
2022-12-03T08:14:23.377Z,100989.33
2022-12-03T08:16:52.909Z,101009.52
2022-12-03T08:19:21.155Z,101034.05
2022-12-03T08:21:49.672Z,101037.64
2022-12-03T08:24:21.778Z,101029.30
2022-12-03T08:26:49.275Z,101027.17
2022-12-03T08:29:19.135Z,101030.92
2022-12-03T08:31:50.063Z,101032.77
2022-12-03T08:34:24.023Z,101027.33
2022-12-03T08:36:59.803Z,101027.86
2022-12-03T08:39:45.834Z,101031.31
2022-12-03T08:42:38.529Z,101025.55
2022-12-03T08:45:39.639Z,101023.61
2022-12-03T08:48:33.897Z,101021.48
2022-12-03T08:51:11.796Z,101020.80
2022-12-03T08:53:46.186Z,101018.00
2022-12-03T08:56:30.090Z,101016.30
2022-12-03T08:59:23.288Z,101018.11
2022-12-03T09:01:53.906Z,101015.42
2022-12-03T09:04:28.186Z,101013.05
2022-12-03T09:06:56.546Z,101008.56
2022-12-03T09:09:24.534Z,101002.11
2022-12-03T09:11:52.859Z,100999.63
2022-12-03T09:14:22.863Z,100997.05
2022-12-03T09:16:56.408Z,100992.77
2022-12-03T09:19:26.509Z,100990.02
2022-12-03T09:21:54.943Z,100984.99
2022-12-03T09:24:22.465Z,100983.89
2022-12-03T09:26:52.812Z,100974.69
2022-12-03T09:29:23.800Z,100973.11
2022-12-03T09:31:51.076Z,100970.16
2022-12-03T09:34:19.148Z,100964.77
2022-12-03T09:36:46.546Z,100956.73
2022-12-03T09:39:14.824Z,100953.99
2022-12-03T09:41:43.922Z,100940.04
2022-12-03T09:44:17.564Z,100940.57
2022-12-03T09:46:50.856Z,100937.73
2022-12-03T09:49:20.641Z,100936.73
2022-12-03T09:51:48.997Z,100936.30
2022-12-03T09:54:24.370Z,100930.48
2022-12-03T09:56:52.622Z,100923.77
2022-12-03T09:59:22.940Z,100930.44
2022-12-03T10:01:50.173Z,100935.30
2022-12-03T10:04:18.614Z,100937.48
2022-12-03T10:06:46.950Z,100927.11
2022-12-03T10:09:23.587Z,100928.29
2022-12-03T10:11:52.133Z,100917.71
2022-12-03T10:14:21.361Z,100921.37
2022-12-03T10:16:49.709Z,100919.15
2022-12-03T10:19:23.087Z,100915.18
2022-12-03T10:21:50.641Z,100916.34
2022-12-03T10:29:59.441Z,100911.20
2022-12-03T10:32:52.534Z,100905.27
2022-12-03T10:35:30.716Z,100903.21
2022-12-03T10:38:03.925Z,100900.35
2022-12-03T10:40:39.565Z,100897.18
2022-12-03T10:43:27.297Z,100881.69
2022-12-03T10:46:03.718Z,100875.35
2022-12-03T10:48:32.551Z,100867.59
2022-12-03T10:51:23.174Z,100866.46
2022-12-03T10:53:51.083Z,100861.09
2022-12-03T10:56:26.726Z,100858.98
2022-12-03T10:58:55.934Z,100856.77
2022-12-03T11:01:26.583Z,100851.89
2022-12-03T11:04:01.927Z,100846.86
2022-12-03T11:06:35.983Z,100844.00
2022-12-03T11:09:09.113Z,100843.54
2022-12-03T11:11:37.040Z,100850.30
2022-12-03T11:14:05.433Z,100836.45
2022-12-03T11:16:42.304Z,100831.96
2022-12-03T11:19:48.207Z,100833.51
2022-12-03T11:22:26.283Z,100831.91
2022-12-03T11:25:31.931Z,100826.94
2022-12-03T11:28:14.833Z,100824.30
2022-12-03T11:30:53.312Z,100818.75
2022-12-03T11:33:32.247Z,100819.33
2022-12-03T11:36:03.473Z,100813.14
2022-12-03T11:38:50.749Z,100815.58
2022-12-03T11:41:32.272Z,100811.19
2022-12-03T11:44:04.328Z,100810.88
2022-12-03T11:46:37.569Z,100802.67
2022-12-03T11:49:23.487Z,100793.27
2022-12-03T11:51:51.369Z,100798.23
2022-12-03T11:54:22.607Z,100796.66
2022-12-03T11:56:59.551Z,100796.39
2022-12-03T11:59:28.281Z,100797.93
2022-12-03T12:01:55.388Z,100794.86
2022-12-03T12:04:38.065Z,100792.17
2022-12-03T12:07:05.208Z,100791.11
2022-12-03T12:09:55.492Z,100786.73
2022-12-03T12:12:26.004Z,100783.02
2022-12-03T12:14:53.139Z,100782.23
2022-12-03T12:17:49.408Z,100778.09
2022-12-03T12:20:27.547Z,100779.21
2022-12-03T12:22:55.807Z,100776.78
2022-12-03T12:25:39.136Z,100766.89
2022-12-03T12:28:06.454Z,100770.75
2022-12-03T12:30:33.563Z,100775.41
2022-12-03T12:33:11.203Z,100768.69
2022-12-03T12:35:38.437Z,100766.15
2022-12-03T12:38:11.329Z,100767.05
2022-12-03T12:40:41.774Z,100775.69
2022-12-03T12:43:27.903Z,100771.97
2022-12-03T12:46:18.734Z,100764.35
2022-12-03T12:48:48.736Z,100767.52
2022-12-03T12:51:21.902Z,100763.56
2022-12-03T12:53:50.282Z,100766.16
2022-12-03T12:56:31.572Z,100762.67
2022-12-03T12:59:12.488Z,100759.91
2022-12-03T13:01:40.991Z,100759.38
2022-12-03T13:04:20.193Z,100753.48
2022-12-03T13:26:38.760Z,100751.02
2022-12-03T13:29:19.354Z,100745.45
2022-12-03T13:39:23.044Z,100740.38
2022-12-03T13:42:09.676Z,100741.48
2022-12-03T13:44:45.021Z,100737.98
2022-12-03T13:47:19.857Z,100739.63
2022-12-03T13:49:53.946Z,100739.95
2022-12-03T13:52:26.672Z,100744.72
2022-12-03T13:55:23.366Z,100741.59
2022-12-03T13:57:52.810Z,100739.48
2022-12-03T14:00:23.123Z,100743.29
2022-12-03T14:02:50.799Z,100739.27
2022-12-03T14:05:24.270Z,100738.90
2022-12-03T14:07:52.939Z,100740.02
2022-12-03T14:10:23.473Z,100744.13
2022-12-03T14:12:50.504Z,100742.70
2022-12-03T14:15:26.414Z,100743.02
2022-12-03T14:17:54.045Z,100743.66
2022-12-03T14:20:21.246Z,100744.66
2022-12-03T14:22:48.355Z,100746.66
2022-12-03T14:25:18.088Z,100752.75
2022-12-03T14:27:46.873Z,100752.33
2022-12-03T14:30:15.838Z,100754.29
2022-12-03T14:32:46.560Z,100751.95
2022-12-03T14:35:15.035Z,100747.36
2022-12-03T14:37:42.376Z,100756.14
2022-12-03T14:40:14.198Z,100758.45
2022-12-03T14:42:47.685Z,100759.23
2022-12-03T14:45:17.260Z,100764.59
2022-12-03T14:47:49.558Z,100768.23
2022-12-03T14:50:33.097Z,100770.61
2022-12-03T14:53:04.644Z,100772.40
2022-12-03T14:55:31.711Z,100773.83
2022-12-03T14:58:04.485Z,100775.73
2022-12-03T15:00:33.666Z,100767.27
2022-12-03T15:03:04.795Z,100763.83
2022-12-03T15:05:33.964Z,100767.09
2022-12-03T15:08:08.647Z,100772.77
2022-12-03T15:10:36.472Z,100784.11
2022-12-03T15:13:04.717Z,100782.33
2022-12-03T15:15:31.911Z,100786.88
2022-12-03T15:17:59.419Z,100790.21
2022-12-03T15:20:27.156Z,100792.70
2022-12-03T15:22:54.321Z,100793.06
2022-12-03T15:25:28.293Z,100794.23
2022-12-03T15:27:56.464Z,100796.34
2022-12-03T15:30:24.193Z,100800.43
2022-12-03T15:32:51.360Z,100795.02
2022-12-03T15:35:22.799Z,100800.10
2022-12-03T15:37:49.874Z,100804.61
2022-12-03T15:40:18.339Z,100805.92
2022-12-03T15:42:47.689Z,100808.79
2022-12-03T15:45:15.543Z,100806.61
2022-12-03T15:47:43.068Z,100807.77
2022-12-03T15:50:10.705Z,100806.98
2022-12-03T15:52:38.078Z,100804.82
2022-12-03T15:55:05.651Z,100810.67
2022-12-03T16:03:46.308Z,100817.29
2022-12-03T16:12:53.404Z,100819.44
2022-12-03T16:16:37.696Z,100816.16
2022-12-03T16:19:43.533Z,100814.85
2022-12-03T16:22:15.665Z,100819.23
2022-12-03T16:24:42.760Z,100814.63
2022-12-03T16:27:10.178Z,100814.25
2022-12-03T16:29:37.333Z,100816.75
2022-12-03T16:32:07.747Z,100820.61
2022-12-03T16:34:40.979Z,100824.06
2022-12-03T16:37:08.591Z,100823.48
2022-12-03T16:39:49.854Z,100827.02
2022-12-03T16:42:18.385Z,100829.20
2022-12-03T16:45:12.946Z,100824.47
2022-12-03T16:47:41.414Z,100824.95
2022-12-03T16:50:20.729Z,100827.35
2022-12-03T16:52:54.201Z,100833.73
2022-12-03T16:55:22.344Z,100833.05
2022-12-03T16:57:52.784Z,100833.54
2022-12-03T17:00:31.276Z,100835.86
2022-12-03T17:02:58.772Z,100836.39
2022-12-03T17:05:27.570Z,100837.39
2022-12-03T17:10:48.310Z,100844.00
2022-12-03T17:13:16.328Z,100850.98
2022-12-03T17:15:43.431Z,100855.90
2022-12-03T17:18:11.424Z,100863.35
2022-12-03T17:20:38.993Z,100868.53
2022-12-03T17:23:07.499Z,100872.54
2022-12-03T17:25:35.896Z,100877.52
2022-12-03T17:28:04.781Z,100879.05
2022-12-03T17:33:14.559Z,100888.84
2022-12-03T17:35:44.616Z,100888.63
2022-12-03T17:38:11.658Z,100888.20
2022-12-03T17:40:39.070Z,100889.70
2022-12-03T17:43:06.148Z,100888.75
2022-12-03T17:45:37.062Z,100892.81
2022-12-03T17:48:06.834Z,100890.38
2022-12-03T17:50:36.469Z,100894.61
2022-12-03T17:53:08.564Z,100896.68
2022-12-03T17:55:44.041Z,100904.19
2022-12-03T17:58:13.067Z,100904.92
2022-12-03T18:00:42.076Z,100910.27
2022-12-03T18:03:09.877Z,100913.70
2022-12-03T18:05:37.194Z,100917.56
2022-12-03T18:08:04.917Z,100922.73
2022-12-03T18:10:32.377Z,100926.02
2022-12-03T18:13:02.022Z,100926.19
2022-12-03T18:15:30.511Z,100924.60
2022-12-03T18:18:01.567Z,100927.73
2022-12-03T18:20:30.126Z,100927.40
2022-12-03T18:22:59.691Z,100928.89
2022-12-03T18:25:28.094Z,100930.05
2022-12-03T18:27:55.165Z,100928.94
2022-12-03T18:30:24.216Z,100934.27
2022-12-03T18:32:51.296Z,100934.02
2022-12-03T18:35:18.553Z,100936.13
2022-12-03T18:37:45.864Z,100941.94
2022-12-03T18:40:23.397Z,100944.38
2022-12-03T18:42:51.118Z,100945.34
2022-12-03T18:45:18.348Z,100948.67
2022-12-03T18:47:45.825Z,100952.86
2022-12-03T18:50:15.278Z,100953.17
2022-12-03T18:52:42.395Z,100960.64
2022-12-03T18:55:21.098Z,100961.38
2022-12-03T18:57:48.937Z,100965.81
2022-12-03T19:00:19.284Z,100966.98
2022-12-03T19:03:03.832Z,100966.93
2022-12-03T19:05:33.595Z,100969.52
2022-12-03T19:08:04.979Z,100969.09
2022-12-03T19:10:32.128Z,100973.71
2022-12-03T19:13:00.379Z,100975.92
2022-12-03T19:15:31.478Z,100978.58
2022-12-03T19:17:59.041Z,100976.51
2022-12-03T19:27:20.984Z,100980.82
2022-12-03T19:29:49.033Z,100980.49
2022-12-03T19:32:17.497Z,100978.34
2022-12-03T19:34:45.140Z,100983.88
2022-12-03T19:37:13.719Z,100987.58
2022-12-03T19:39:43.540Z,100989.86
2022-12-03T19:42:22.325Z,100993.77
2022-12-03T19:44:49.900Z,100995.69
2022-12-03T19:47:17.442Z,100999.02
2022-12-03T19:49:44.476Z,100999.98
2022-12-03T19:52:11.561Z,101002.08
2022-12-03T19:54:40.044Z,101002.60
2022-12-03T19:57:07.103Z,101004.46
2022-12-03T19:59:35.859Z,101001.66
2022-12-03T20:02:04.664Z,101000.49
2022-12-03T20:04:31.947Z,101002.14
2022-12-03T20:06:59.237Z,101000.17
2022-12-03T20:09:32.430Z,101001.81
2022-12-03T20:12:04.044Z,101000.80
2022-12-03T20:14:37.872Z,100999.13
2022-12-03T20:17:07.619Z,101004.56
2022-12-03T20:19:36.438Z,101001.71
2022-12-03T20:22:05.001Z,101002.35
2022-12-03T20:24:32.372Z,101001.98
2022-12-03T20:27:01.248Z,101006.00
2022-12-03T20:29:28.755Z,101014.20
2022-12-03T20:31:56.481Z,101015.22
2022-12-03T20:34:24.873Z,101021.73
2022-12-03T20:36:52.427Z,101023.89
2022-12-03T20:39:19.839Z,101024.63
2022-12-03T20:45:04.340Z,101022.55
2022-12-03T20:50:27.272Z,101024.30
2022-12-03T20:53:22.757Z,101028.31
2022-12-03T20:55:44.273Z,101027.45
2022-12-03T20:58:15.669Z,101030.31
2022-12-03T21:00:43.362Z,101032.17
2022-12-03T21:03:15.071Z,101037.92
2022-12-03T21:05:44.493Z,101042.27
2022-12-03T21:08:13.993Z,101046.80
2022-12-03T21:10:45.715Z,101052.30
2022-12-03T21:13:19.155Z,101051.56
2022-12-03T21:15:47.068Z,101056.91
2022-12-03T21:18:17.040Z,101065.05
2022-12-03T21:20:47.287Z,101063.78
2022-12-03T21:23:15.171Z,101065.67
2022-12-03T21:25:43.698Z,101072.20
2022-12-03T21:28:11.786Z,101072.07
2022-12-03T21:30:45.146Z,101075.71
2022-12-03T21:33:13.412Z,101077.24
2022-12-03T21:35:41.114Z,101082.05
2022-12-03T21:38:10.047Z,101082.05
2022-12-03T21:40:37.725Z,101079.30
2022-12-03T21:43:05.404Z,101079.17
2022-12-03T21:45:32.735Z,101078.53
2022-12-03T21:48:00.390Z,101075.95
2022-12-03T21:50:27.863Z,101077.06
2022-12-03T21:53:03.326Z,101080.23
2022-12-03T21:55:34.258Z,101082.83
2022-12-03T21:58:01.719Z,101086.64
2022-12-03T22:00:29.072Z,101089.98
2022-12-03T22:02:57.104Z,101089.02
2022-12-03T22:12:02.412Z,101098.26
2022-12-03T22:28:12.495Z,101107.48
2022-12-03T22:30:40.988Z,101111.40
2022-12-03T22:33:08.272Z,101114.36
2022-12-03T22:35:35.656Z,101115.16
2022-12-03T22:38:06.082Z,101118.17
2022-12-03T22:40:39.171Z,101127.23
2022-12-03T22:43:06.666Z,101130.52
2022-12-03T22:45:36.083Z,101134.96
2022-12-03T22:48:04.204Z,101133.26
2022-12-03T22:50:32.775Z,101135.54
2022-12-03T22:53:00.529Z,101136.76
2022-12-03T22:55:27.687Z,101138.55
2022-12-03T22:58:07.832Z,101140.39
2022-12-03T23:00:47.151Z,101135.17
2022-12-03T23:03:19.604Z,101135.76
2022-12-03T23:05:58.864Z,101131.05
2022-12-03T23:08:27.077Z,101133.37
2022-12-03T23:11:02.534Z,101123.91
2022-12-03T23:13:41.270Z,101124.10
2022-12-03T23:16:22.512Z,101120.93
2022-12-03T23:18:53.858Z,101118.76
2022-12-03T23:21:29.902Z,101123.95
2022-12-03T23:23:59.866Z,101125.21
2022-12-03T23:26:28.033Z,101120.77
2022-12-03T23:28:55.381Z,101118.94
2022-12-03T23:31:25.714Z,101118.84
2022-12-03T23:33:53.495Z,101115.61
2022-12-03T23:36:21.962Z,101114.50
2022-12-03T23:38:49.416Z,101115.29
2022-12-03T23:41:20.146Z,101114.50
2022-12-03T23:43:52.057Z,101112.98
2022-12-03T23:46:25.751Z,101115.05
2022-12-03T23:48:58.674Z,101113.88
2022-12-03T23:51:26.867Z,101113.10
2022-12-03T23:53:58.337Z,101107.06
2022-12-03T23:56:29.251Z,101101.09
2022-12-03T23:59:00.470Z,101104.10
